Port Angeles, WA

6:13 AM PDT on April 28, 2015 (GMT -0700)
Fairchild International | | Change Station
CLOSE
Current Station
Airport
Location: Port Angeles,
Elevation: 289 ft
Nearby Weather Stations

Elev 289 ft 48.12 °N, 123.50 °W | Updated 20 minutes ago

Mostly Cloudy
Mostly Cloudy
50 °F
Feels Like 50 °F
N
8
Wind Variable Wind from SE

Today
High -- | Low -- °F
--% Chance of Precip.
Yesterday
High -- | Low -- °F
Precip. -- in
6:00 AM 8:23 PM
Waxing Gibbous, 73% visible
Pressure 29.96 in
Visibility 10.0 miles
Clouds Few 8500 ft
Dew Point 46 °F
Humidity 86%
Rainfall 0.00 in
Snow Depth Not available.
UV 0 out of 12
Pollen 8.50 out of 12
Air Quality Not available.
Flu Activity Regional
METAR KCLM 281253Z AUTO 13007KT 10SM FEW085 10/08 A2996 RMK AO2 SLP146 T01000078

More Conditions Fewer Conditions

Pressure 29.96 in
Visibility 10.0 miles
Clouds Few 8500 ft
Dew Point 46 °F
Humidity 86%
Rainfall 0.00 in
Snow Depth Not available.
UV 0 out of 12
Pollen 8.50 out of 12
Air Quality Not available.
Flu Activity Regional
METAR KCLM 281253Z AUTO 13007KT 10SM FEW085 10/08 A2996 RMK AO2 SLP146 T01000078

More Conditions Fewer Conditions

10-Day Weather Forecast

Almanac

Astronomy

Apr. 28, 2015 Rise Set
Actual Time
Civil Twilight
Nautical Twilight
Astronomical Twilight
Moon
Length of Visible Light
Length of Day
Tomorrow will be .
, % of the Moon is Illuminated

Today's Extremes

State Highs State Lows

Community

WunderPhotos

Upload Photos

1,817,622 photos uploaded!

WunderBlogs® & News

Nearby

Air Quality

  Air Quality AQ Index Pollutant
Not available.

Snow Depth

Station Depth Elevation

Earthquake Activity

City Distance Mag. Time & Date
Minimum magnitude displayed is 2.5.

Coastal Water Temperatures

Place Temperature

Stations

Nearby Weather Stations

Station Location Temp. Windchill Dew Point Humidity Wind Precip. Elev Updated Type